Nearby METAR Reports

 

KARR - Chicago/Aurora, Illinois, USA
Distance from station: S 8mi, 13km
Updated: Wed, Nov-22-2017 5:52pm CST
Clear
Clear
 Wind from SSW
Wind: SSW 5 mph , 7 km/h
Temperature: 28°F , -2°C
Wind Chill: 22°F , -6°C
Dew Point: 19°F , -7°C
Humidity: 69%
Barometer: 1024.7 hPa
Clouds: Clear
Visibility: 10 miles , 16 km
2017/11/22 23:52 KARR 222352Z 21004KT 10SM CLR M02/M07 A3026 RMK AO2 SLP256 T10171067 10011 21017 55006
KDKB - De Kalb, Illinois, USA
Distance from station: WNW 12mi, 19km
Updated: Wed, Nov-22-2017 5:55pm CST
Clear
Clear
 Wind from SW
Wind: SW 3 mph , 6 km/h
Temperature: 30°F , -1°C
Dew Point: 19°F , -7°C
Humidity: 64%
Barometer: 1024 hPa
Clouds: Clear
Visibility: 10 miles , 16 km
2017/11/22 23:55 KDKB 222355Z AUTO 23003KT 10SM CLR M01/M07 A3024 RMK AO2 T10141072 10000 21018
 
KDPA - Chicago/Dupage, Illinois, USA
Distance from station: E 12mi, 19km
Updated: Wed, Nov-22-2017 5:52pm CST
Clear
Clear
 Wind from SW
Wind: SW 7 mph , 11 km/h
Temperature: 28°F , -2°C
Wind Chill: 21°F , -6°C
Dew Point: 19°F , -7°C
Humidity: 69%
Barometer: 1024 hPa
Clouds: Clear
Visibility: 10 miles , 16 km
2017/11/22 23:52 KDPA 222352Z 23006KT 10SM CLR M02/M07 A3024 RMK AO2 SLP253 T10171072 10006 21022 55006
KLOT - Romeoville/Chi, Illinois, USA
Distance from station: SE 28mi, 45km
Updated: Wed, Nov-22-2017 5:55pm CST
Clear
Clear
 Wind from WSW
Wind: WSW 3 mph , 6 km/h
Temperature: 30°F , -1°C
Dew Point: 21°F , -6°C
Humidity: 69%
Barometer: 1024.7 hPa
Clouds: Clear
Visibility: 10 miles , 16 km
2017/11/22 23:55 KLOT 222355Z AUTO 24003KT 10SM CLR M01/M06 A3026 RMK AO2 T10151064 10010 21020
 
KORD - Chicago O'hare, Illinois, USA
Distance from station: ENE 29mi, 46km
Updated: Wed, Nov-22-2017 5:51pm CST
Overcast
Overcast
 Wind from W
Wind: W 3 mph , 6 km/h
Temperature: 32°F , 0°C
Dew Point: 18°F , -8°C
Humidity: 55%
Barometer: 1024.4 hPa
Clouds: Overcast
Visibility: 10 miles , 16 km
Cloud details: Partly cloudy 20000 ft
Overcast 22000 ft
2017/11/22 23:51 KORD 222351Z 26003KT 10SM SCT200 OVC220 00/M08 A3025 RMK AO2 SLP251 T00001083 10017 21006 55005
KJOT - Joliet, Illinois, USA
Distance from station: SSE 30mi, 48km
Updated: Wed, Nov-22-2017 5:55pm CST
Clear
Clear
 Wind from calm
Wind: Calm
Temperature: 32°F , 0°C
Dew Point: 21°F , -6°C
Humidity: 64%
Barometer: 1025.1 hPa
Clouds: Clear
Visibility: 10 miles , 16 km
2017/11/22 23:55 KJOT 222355Z AUTO 00000KT 10SM CLR 00/M06 A3027 RMK AO2 T10011065 10016 21015
 
KRPJ - Rochelle/Koritz, Illinois, USA
Distance from station: W 31mi, 50km
Updated: Wed, Nov-22-2017 5:55pm CST
Clear
Clear
 Wind from SSW
Wind: SSW 3 mph , 6 km/h
Temperature: 28°F , -2°C
Dew Point: 23°F , -5°C
Humidity: 80%
Barometer: 1024.4 hPa
Clouds: Clear
Visibility: 10 miles , 16 km
2017/11/22 23:55 KRPJ 222355Z AUTO 20003KT 10SM CLR M02/M05 A3025 RMK AO2 T10171047 10000 21025
KC09 - Morris-Washburn, Illinois, USA
Distance from station: S 31mi, 51km
Updated: Wed, Nov-22-2017 5:55pm CST
Clear
Clear
 Wind from WSW
Wind: WSW 3 mph , 6 km/h
Temperature: 30°F , -1°C
Dew Point: 19°F , -7°C
Humidity: 64%
Barometer: 1024.7 hPa
Clouds: Clear
Visibility: 10 miles , 16 km
2017/11/22 23:55 KC09 222355Z AUTO 24003KT 10SM CLR M01/M07 A3026 RMK AO2 T10061072 10011 21016
 
KPWK - Palwaukee, Illinois, USA
Distance from station: ENE 34mi, 54km
Updated: Wed, Nov-22-2017 5:52pm CST
Clear
Clear
 Wind from WSW
Wind: WSW 5 mph , 7 km/h
Temperature: 32°F , 0°C
Wind Chill: 27°F , -3°C
Dew Point: 18°F , -8°C
Humidity: 55%
Barometer: 1024.7 hPa
Clouds: Clear
Visibility: 10 miles , 16 km
2017/11/22 23:52 KPWK 222352Z 25004KT 10SM CLR 00/M08 A3026 RMK AO2 SLP255 T00001083 10017 20000 56007
KMDW - Chicago, Illinois, USA
Distance from station: E 38mi, 62km
Updated: Wed, Nov-22-2017 5:53pm CST
Mostly cloudy
Mostly cloudy
 Wind from WSW
Wind: WSW 7 mph , 11 km/h
Temperature: 32°F , 0°C
Wind Chill: 25°F , -4°C
Dew Point: 18°F , -8°C
Humidity: 55%
Barometer: 1024.7 hPa
Clouds: Mostly cloudy
Visibility: 10 miles , 16 km
Cloud details: Few Clouds 16000 ft
Mostly cloudy 20000 ft
2017/11/22 23:53 KMDW 222353Z 24006KT 10SM FEW160 BKN200 00/M08 A3026 RMK AO2 SLP259 T00001083 10017 20000 55006
 
KRFD - Rockford, Illinois, USA
Distance from station: NW 39mi, 62km
Updated: Wed, Nov-22-2017 5:54pm CST
Overcast
Overcast
 Wind from S
Wind: S 7 mph , 11 km/h
Temperature: 32°F , 0°C
Wind Chill: 25°F , -4°C
Dew Point: 16°F , -9°C
Humidity: 51%
Barometer: 1024.4 hPa
Clouds: Overcast
Visibility: 10 miles , 16 km
Cloud details: Overcast 18000 ft
2017/11/22 23:54 KRFD 222354Z 19006KT 10SM OVC180 M00/M09 A3025 RMK AO2 SLP254 10028 21006 T10061089 10094 21006 56007